sensor_id;sensor_type;location;lat;lon;timestamp;temperature;humidity
44990;DHT22;30723;51.206;3.326;2023-02-17T00:01:20;11.20;99.90
44990;DHT22;30723;51.206;3.326;2023-02-17T00:03:50;11.20;99.90
44990;DHT22;30723;51.206;3.326;2023-02-17T00:06:17;11.20;99.90
44990;DHT22;30723;51.206;3.326;2023-02-17T00:08:46;11.20;99.90
44990;DHT22;30723;51.206;3.326;2023-02-17T00:11:12;11.20;99.90
44990;DHT22;30723;51.206;3.326;2023-02-17T00:13:39;11.20;99.90
44990;DHT22;30723;51.206;3.326;2023-02-17T00:16:19;11.10;99.90
44990;DHT22;30723;51.206;3.326;2023-02-17T00:18:46;11.10;99.90
44990;DHT22;30723;51.206;3.326;2023-02-17T00:21:15;11.10;99.90
44990;DHT22;30723;51.206;3.326;2023-02-17T00:23:41;11.20;99.90
44990;DHT22;30723;51.206;3.326;2023-02-17T00:26:07;11.20;99.90
44990;DHT22;30723;51.206;3.326;2023-02-17T00:28:33;11.20;99.90
44990;DHT22;30723;51.206;3.326;2023-02-17T00:31:12;11.20;99.90
44990;DHT22;30723;51.206;3.326;2023-02-17T00:33:39;11.20;99.90
44990;DHT22;30723;51.206;3.326;2023-02-17T00:36:10;11.20;99.90
44990;DHT22;30723;51.206;3.326;2023-02-17T00:38:37;11.20;99.90
44990;DHT22;30723;51.206;3.326;2023-02-17T00:41:04;11.20;99.90
44990;DHT22;30723;51.206;3.326;2023-02-17T00:43:31;11.20;99.90
44990;DHT22;30723;51.206;3.326;2023-02-17T00:45:57;11.20;99.90
44990;DHT22;30723;51.206;3.326;2023-02-17T00:48:24;11.20;99.90
44990;DHT22;30723;51.206;3.326;2023-02-17T00:50:51;11.30;99.90
44990;DHT22;30723;51.206;3.326;2023-02-17T00:53:17;11.20;99.90
44990;DHT22;30723;51.206;3.326;2023-02-17T00:55:44;11.20;99.90
44990;DHT22;30723;51.206;3.326;2023-02-17T00:58:10;11.20;99.90
44990;DHT22;30723;51.206;3.326;2023-02-17T01:00:36;11.10;99.90
44990;DHT22;30723;51.206;3.326;2023-02-17T01:03:01;11.10;99.90
44990;DHT22;30723;51.206;3.326;2023-02-17T01:05:27;11.10;99.90
44990;DHT22;30723;51.206;3.326;2023-02-17T01:07:53;11.10;99.90
44990;DHT22;30723;51.206;3.326;2023-02-17T01:10:20;11.10;99.90
44990;DHT22;30723;51.206;3.326;2023-02-17T01:12:45;11.00;99.90
44990;DHT22;30723;51.206;3.326;2023-02-17T01:15:13;11.00;99.90
44990;DHT22;30723;51.206;3.326;2023-02-17T01:17:38;11.00;99.90
44990;DHT22;30723;51.206;3.326;2023-02-17T01:20:07;11.00;99.90
44990;DHT22;30723;51.206;3.326;2023-02-17T01:22:34;11.00;99.90
44990;DHT22;30723;51.206;3.326;2023-02-17T01:25:02;11.00;99.90
44990;DHT22;30723;51.206;3.326;2023-02-17T01:27:29;10.90;99.90
44990;DHT22;30723;51.206;3.326;2023-02-17T01:29:57;10.90;99.90
44990;DHT22;30723;51.206;3.326;2023-02-17T01:32:22;10.80;99.90
44990;DHT22;30723;51.206;3.326;2023-02-17T01:34:48;10.80;99.90
44990;DHT22;30723;51.206;3.326;2023-02-17T01:37:15;10.80;99.90
44990;DHT22;30723;51.206;3.326;2023-02-17T01:39:42;10.80;99.90
44990;DHT22;30723;51.206;3.326;2023-02-17T01:42:17;10.70;99.90
44990;DHT22;30723;51.206;3.326;2023-02-17T01:50:11;10.70;99.90
44990;DHT22;30723;51.206;3.326;2023-02-17T01:52:37;10.70;99.90
44990;DHT22;30723;51.206;3.326;2023-02-17T01:55:09;10.70;99.90
44990;DHT22;30723;51.206;3.326;2023-02-17T01:57:38;10.60;99.90
44990;DHT22;30723;51.206;3.326;2023-02-17T02:00:10;10.70;99.90
44990;DHT22;30723;51.206;3.326;2023-02-17T02:02:39;10.60;99.90
44990;DHT22;30723;51.206;3.326;2023-02-17T02:05:07;10.60;99.90
44990;DHT22;30723;51.206;3.326;2023-02-17T02:07:37;10.60;99.90
44990;DHT22;30723;51.206;3.326;2023-02-17T02:10:07;10.60;99.90
44990;DHT22;30723;51.206;3.326;2023-02-17T02:12:36;10.70;99.90
44990;DHT22;30723;51.206;3.326;2023-02-17T02:15:25;10.60;99.90
44990;DHT22;30723;51.206;3.326;2023-02-17T02:23:14;10.50;99.90
44990;DHT22;30723;51.206;3.326;2023-02-17T02:33:50;10.40;99.90
44990;DHT22;30723;51.206;3.326;2023-02-17T02:36:36;10.50;99.90
44990;DHT22;30723;51.206;3.326;2023-02-17T02:39:28;10.50;99.90
44990;DHT22;30723;51.206;3.326;2023-02-17T02:42:04;10.50;99.90
44990;DHT22;30723;51.206;3.326;2023-02-17T02:44:31;10.60;99.90
44990;DHT22;30723;51.206;3.326;2023-02-17T02:46:57;10.60;99.90
44990;DHT22;30723;51.206;3.326;2023-02-17T02:49:24;10.60;99.90
44990;DHT22;30723;51.206;3.326;2023-02-17T02:52:22;10.60;99.90
44990;DHT22;30723;51.206;3.326;2023-02-17T02:55:07;10.60;99.90
44990;DHT22;30723;51.206;3.326;2023-02-17T03:00:49;10.60;99.90
44990;DHT22;30723;51.206;3.326;2023-02-17T03:03:34;10.60;99.90
44990;DHT22;30723;51.206;3.326;2023-02-17T03:06:44;10.70;99.90
44990;DHT22;30723;51.206;3.326;2023-02-17T03:09:20;10.70;99.90
44990;DHT22;30723;51.206;3.326;2023-02-17T03:11:48;10.60;99.90
44990;DHT22;30723;51.206;3.326;2023-02-17T03:14:18;10.60;99.90
44990;DHT22;30723;51.206;3.326;2023-02-17T03:16:45;10.60;99.90
44990;DHT22;30723;51.206;3.326;2023-02-17T03:19:12;10.60;99.90
44990;DHT22;30723;51.206;3.326;2023-02-17T03:24:26;10.60;99.90
44990;DHT22;30723;51.206;3.326;2023-02-17T03:26:53;10.60;99.90
44990;DHT22;30723;51.206;3.326;2023-02-17T03:29:20;10.60;99.90
44990;DHT22;30723;51.206;3.326;2023-02-17T03:31:46;10.60;99.90
44990;DHT22;30723;51.206;3.326;2023-02-17T03:34:12;10.60;99.90
44990;DHT22;30723;51.206;3.326;2023-02-17T03:36:41;10.60;99.90
44990;DHT22;30723;51.206;3.326;2023-02-17T03:39:07;10.60;99.90
44990;DHT22;30723;51.206;3.326;2023-02-17T03:41:34;10.60;99.90
44990;DHT22;30723;51.206;3.326;2023-02-17T03:43:59;10.70;99.90
44990;DHT22;30723;51.206;3.326;2023-02-17T03:46:26;10.70;99.90
44990;DHT22;30723;51.206;3.326;2023-02-17T03:48:53;10.70;99.90
44990;DHT22;30723;51.206;3.326;2023-02-17T03:51:21;10.70;99.90
44990;DHT22;30723;51.206;3.326;2023-02-17T03:53:48;10.70;99.90
44990;DHT22;30723;51.206;3.326;2023-02-17T03:56:14;10.80;99.90
44990;DHT22;30723;51.206;3.326;2023-02-17T03:58:42;10.80;99.90
44990;DHT22;30723;51.206;3.326;2023-02-17T04:01:10;10.80;99.90
44990;DHT22;30723;51.206;3.326;2023-02-17T04:03:37;10.80;99.90
44990;DHT22;30723;51.206;3.326;2023-02-17T04:06:05;10.80;99.90
44990;DHT22;30723;51.206;3.326;2023-02-17T04:08:40;10.80;99.90
44990;DHT22;30723;51.206;3.326;2023-02-17T04:11:09;10.80;99.90
44990;DHT22;30723;51.206;3.326;2023-02-17T04:13:36;10.80;99.90
44990;DHT22;30723;51.206;3.326;2023-02-17T04:16:05;10.80;99.90
44990;DHT22;30723;51.206;3.326;2023-02-17T04:18:32;10.80;99.90
44990;DHT22;30723;51.206;3.326;2023-02-17T04:20:58;10.80;99.90
44990;DHT22;30723;51.206;3.326;2023-02-17T04:23:25;10.80;99.90
44990;DHT22;30723;51.206;3.326;2023-02-17T04:25:51;10.80;99.90
44990;DHT22;30723;51.206;3.326;2023-02-17T04:28:17;10.80;99.90
44990;DHT22;30723;51.206;3.326;2023-02-17T04:31:03;10.90;99.90
44990;DHT22;30723;51.206;3.326;2023-02-17T04:33:29;10.90;99.90
44990;DHT22;30723;51.206;3.326;2023-02-17T04:35:56;10.90;99.90
44990;DHT22;30723;51.206;3.326;2023-02-17T04:38:44;10.90;99.90
44990;DHT22;30723;51.206;3.326;2023-02-17T04:41:10;10.80;99.90
44990;DHT22;30723;51.206;3.326;2023-02-17T04:43:37;10.80;99.90
44990;DHT22;30723;51.206;3.326;2023-02-17T04:46:03;10.80;99.90
44990;DHT22;30723;51.206;3.326;2023-02-17T04:48:30;10.90;99.90
44990;DHT22;30723;51.206;3.326;2023-02-17T04:50:57;10.90;99.90
44990;DHT22;30723;51.206;3.326;2023-02-17T04:53:22;10.90;99.90
44990;DHT22;30723;51.206;3.326;2023-02-17T04:55:49;10.90;99.90
44990;DHT22;30723;51.206;3.326;2023-02-17T04:58:16;10.90;99.90
44990;DHT22;30723;51.206;3.326;2023-02-17T05:00:42;10.90;99.90
44990;DHT22;30723;51.206;3.326;2023-02-17T05:03:08;10.90;99.90
44990;DHT22;30723;51.206;3.326;2023-02-17T05:05:33;10.90;99.90
44990;DHT22;30723;51.206;3.326;2023-02-17T05:07:59;11.00;99.90
44990;DHT22;30723;51.206;3.326;2023-02-17T05:10:26;11.00;99.90
44990;DHT22;30723;51.206;3.326;2023-02-17T05:12:53;11.00;99.90
44990;DHT22;30723;51.206;3.326;2023-02-17T05:15:18;11.10;99.90
44990;DHT22;30723;51.206;3.326;2023-02-17T05:17:45;11.10;99.90
44990;DHT22;30723;51.206;3.326;2023-02-17T05:20:11;11.10;99.90
44990;DHT22;30723;51.206;3.326;2023-02-17T05:22:38;11.10;99.90
44990;DHT22;30723;51.206;3.326;2023-02-17T05:25:04;11.10;99.90
44990;DHT22;30723;51.206;3.326;2023-02-17T05:27:31;11.10;99.90
44990;DHT22;30723;51.206;3.326;2023-02-17T05:29:57;11.10;99.90
44990;DHT22;30723;51.206;3.326;2023-02-17T05:32:23;11.10;99.90
44990;DHT22;30723;51.206;3.326;2023-02-17T05:34:49;11.20;99.90
44990;DHT22;30723;51.206;3.326;2023-02-17T05:37:15;11.20;99.90
44990;DHT22;30723;51.206;3.326;2023-02-17T05:39:40;11.20;99.90
44990;DHT22;30723;51.206;3.326;2023-02-17T05:42:06;11.20;99.90
44990;DHT22;30723;51.206;3.326;2023-02-17T05:44:33;11.20;99.90
44990;DHT22;30723;51.206;3.326;2023-02-17T05:46:59;11.20;99.90
44990;DHT22;30723;51.206;3.326;2023-02-17T05:49:26;11.20;99.90
44990;DHT22;30723;51.206;3.326;2023-02-17T05:51:51;11.20;99.90
44990;DHT22;30723;51.206;3.326;2023-02-17T05:54:18;11.30;99.90
44990;DHT22;30723;51.206;3.326;2023-02-17T05:56:45;11.30;99.90
44990;DHT22;30723;51.206;3.326;2023-02-17T05:59:11;11.30;99.90
44990;DHT22;30723;51.206;3.326;2023-02-17T06:01:36;11.30;99.90
44990;DHT22;30723;51.206;3.326;2023-02-17T06:04:03;11.30;99.90
44990;DHT22;30723;51.206;3.326;2023-02-17T06:06:29;11.30;99.90
44990;DHT22;30723;51.206;3.326;2023-02-17T06:08:56;11.30;99.90
44990;DHT22;30723;51.206;3.326;2023-02-17T06:11:22;11.30;99.90
44990;DHT22;30723;51.206;3.326;2023-02-17T06:13:48;11.30;99.90
44990;DHT22;30723;51.206;3.326;2023-02-17T06:16:15;11.30;99.90
44990;DHT22;30723;51.206;3.326;2023-02-17T06:18:41;11.30;99.90
44990;DHT22;30723;51.206;3.326;2023-02-17T06:21:08;11.30;99.90
44990;DHT22;30723;51.206;3.326;2023-02-17T06:23:34;11.30;99.90
44990;DHT22;30723;51.206;3.326;2023-02-17T06:26:01;11.30;99.90
44990;DHT22;30723;51.206;3.326;2023-02-17T06:28:27;11.30;99.90
44990;DHT22;30723;51.206;3.326;2023-02-17T06:30:53;11.30;99.90
44990;DHT22;30723;51.206;3.326;2023-02-17T06:33:20;11.30;99.90
44990;DHT22;30723;51.206;3.326;2023-02-17T06:35:50;11.30;99.90
44990;DHT22;30723;51.206;3.326;2023-02-17T06:38:17;11.40;99.90
44990;DHT22;30723;51.206;3.326;2023-02-17T06:40:42;11.40;99.90
44990;DHT22;30723;51.206;3.326;2023-02-17T06:43:09;11.30;99.90
44990;DHT22;30723;51.206;3.326;2023-02-17T06:45:36;11.40;99.90
44990;DHT22;30723;51.206;3.326;2023-02-17T06:48:02;11.40;99.90
44990;DHT22;30723;51.206;3.326;2023-02-17T06:50:29;11.30;99.90
44990;DHT22;30723;51.206;3.326;2023-02-17T06:52:55;11.30;99.90
44990;DHT22;30723;51.206;3.326;2023-02-17T06:55:21;11.30;99.90
44990;DHT22;30723;51.206;3.326;2023-02-17T06:57:48;11.40;99.90
44990;DHT22;30723;51.206;3.326;2023-02-17T07:00:15;11.40;99.90
44990;DHT22;30723;51.206;3.326;2023-02-17T07:02:42;11.40;99.90
44990;DHT22;30723;51.206;3.326;2023-02-17T07:05:09;11.40;99.90
44990;DHT22;30723;51.206;3.326;2023-02-17T07:07:36;11.30;99.90
44990;DHT22;30723;51.206;3.326;2023-02-17T07:10:03;11.30;99.90
44990;DHT22;30723;51.206;3.326;2023-02-17T07:12:29;11.30;99.90
44990;DHT22;30723;51.206;3.326;2023-02-17T07:14:55;11.30;99.90
44990;DHT22;30723;51.206;3.326;2023-02-17T07:17:21;11.30;99.90
44990;DHT22;30723;51.206;3.326;2023-02-17T07:19:47;11.20;99.90
44990;DHT22;30723;51.206;3.326;2023-02-17T07:22:14;11.20;99.90
44990;DHT22;30723;51.206;3.326;2023-02-17T07:24:41;11.30;99.90
44990;DHT22;30723;51.206;3.326;2023-02-17T07:27:07;11.30;99.90
44990;DHT22;30723;51.206;3.326;2023-02-17T07:29:35;11.30;99.90
44990;DHT22;30723;51.206;3.326;2023-02-17T07:32:02;11.40;99.90
44990;DHT22;30723;51.206;3.326;2023-02-17T07:34:27;11.30;99.90
44990;DHT22;30723;51.206;3.326;2023-02-17T07:36:54;11.30;99.90
44990;DHT22;30723;51.206;3.326;2023-02-17T07:39:20;11.30;99.90
44990;DHT22;30723;51.206;3.326;2023-02-17T07:41:47;11.30;99.90
44990;DHT22;30723;51.206;3.326;2023-02-17T07:44:13;11.30;99.90
44990;DHT22;30723;51.206;3.326;2023-02-17T07:46:40;11.30;99.90
44990;DHT22;30723;51.206;3.326;2023-02-17T07:49:06;11.30;99.90
44990;DHT22;30723;51.206;3.326;2023-02-17T07:51:32;11.30;99.90
44990;DHT22;30723;51.206;3.326;2023-02-17T07:53:59;11.30;99.90
44990;DHT22;30723;51.206;3.326;2023-02-17T07:56:25;11.30;99.90
44990;DHT22;30723;51.206;3.326;2023-02-17T07:58:51;11.30;99.90
44990;DHT22;30723;51.206;3.326;2023-02-17T08:01:20;11.30;99.90
44990;DHT22;30723;51.206;3.326;2023-02-17T08:03:47;11.30;99.90
44990;DHT22;30723;51.206;3.326;2023-02-17T08:06:15;11.30;99.90
44990;DHT22;30723;51.206;3.326;2023-02-17T08:08:43;11.30;99.90
44990;DHT22;30723;51.206;3.326;2023-02-17T08:11:30;11.40;99.90
44990;DHT22;30723;51.206;3.326;2023-02-17T08:14:14;11.40;99.90
44990;DHT22;30723;51.206;3.326;2023-02-17T08:16:41;11.40;99.90
44990;DHT22;30723;51.206;3.326;2023-02-17T08:19:08;11.40;99.90
44990;DHT22;30723;51.206;3.326;2023-02-17T08:21:34;11.40;99.90
44990;DHT22;30723;51.206;3.326;2023-02-17T08:23:59;11.40;99.90
44990;DHT22;30723;51.206;3.326;2023-02-17T08:26:26;11.50;99.90
44990;DHT22;30723;51.206;3.326;2023-02-17T08:28:52;11.50;99.90
44990;DHT22;30723;51.206;3.326;2023-02-17T08:33:46;11.50;99.90
44990;DHT22;30723;51.206;3.326;2023-02-17T08:36:12;11.40;99.90
44990;DHT22;30723;51.206;3.326;2023-02-17T08:38:40;11.50;99.90
44990;DHT22;30723;51.206;3.326;2023-02-17T08:41:23;11.60;99.90
44990;DHT22;30723;51.206;3.326;2023-02-17T08:44:10;11.70;99.90
44990;DHT22;30723;51.206;3.326;2023-02-17T08:46:56;11.70;99.90
44990;DHT22;30723;51.206;3.326;2023-02-17T08:49:42;11.60;99.90
44990;DHT22;30723;51.206;3.326;2023-02-17T08:52:27;11.70;99.90
44990;DHT22;30723;51.206;3.326;2023-02-17T08:55:13;11.80;99.90
44990;DHT22;30723;51.206;3.326;2023-02-17T08:57:59;11.80;99.90
44990;DHT22;30723;51.206;3.326;2023-02-17T09:00:45;11.90;99.90
44990;DHT22;30723;51.206;3.326;2023-02-17T09:03:34;12.00;99.90
44990;DHT22;30723;51.206;3.326;2023-02-17T09:06:20;12.00;99.90
44990;DHT22;30723;51.206;3.326;2023-02-17T09:09:06;12.00;99.90
44990;DHT22;30723;51.206;3.326;2023-02-17T09:11:54;12.00;99.90
44990;DHT22;30723;51.206;3.326;2023-02-17T09:14:40;11.90;99.90
44990;DHT22;30723;51.206;3.326;2023-02-17T09:17:26;12.00;99.90
44990;DHT22;30723;51.206;3.326;2023-02-17T09:20:11;12.00;99.90
44990;DHT22;30723;51.206;3.326;2023-02-17T09:22:59;11.90;99.90
44990;DHT22;30723;51.206;3.326;2023-02-17T09:25:25;11.90;99.90
44990;DHT22;30723;51.206;3.326;2023-02-17T09:27:51;11.90;99.90
44990;DHT22;30723;51.206;3.326;2023-02-17T09:30:17;11.90;99.90
44990;DHT22;30723;51.206;3.326;2023-02-17T09:33:02;12.00;99.90
44990;DHT22;30723;51.206;3.326;2023-02-17T09:35:49;11.90;99.90
44990;DHT22;30723;51.206;3.326;2023-02-17T09:38:36;11.90;99.90
44990;DHT22;30723;51.206;3.326;2023-02-17T09:41:31;12.00;99.90
44990;DHT22;30723;51.206;3.326;2023-02-17T09:44:00;12.10;99.90
44990;DHT22;30723;51.206;3.326;2023-02-17T09:46:34;12.20;99.90
44990;DHT22;30723;51.206;3.326;2023-02-17T09:49:13;12.20;99.90
44990;DHT22;30723;51.206;3.326;2023-02-17T09:52:04;12.20;99.90
44990;DHT22;30723;51.206;3.326;2023-02-17T09:57:18;12.20;99.90
44990;DHT22;30723;51.206;3.326;2023-02-17T09:59:54;12.20;99.90
44990;DHT22;30723;51.206;3.326;2023-02-17T10:02:58;12.10;99.90
44990;DHT22;30723;51.206;3.326;2023-02-17T10:05:32;12.20;99.90
44990;DHT22;30723;51.206;3.326;2023-02-17T10:08:10;12.20;99.90
44990;DHT22;30723;51.206;3.326;2023-02-17T10:10:43;12.20;99.90
44990;DHT22;30723;51.206;3.326;2023-02-17T10:13:15;12.20;99.90
44990;DHT22;30723;51.206;3.326;2023-02-17T10:15:45;12.20;99.90
44990;DHT22;30723;51.206;3.326;2023-02-17T10:18:18;12.30;99.90
44990;DHT22;30723;51.206;3.326;2023-02-17T10:23:25;12.20;99.90
44990;DHT22;30723;51.206;3.326;2023-02-17T10:31:44;12.30;99.90
44990;DHT22;30723;51.206;3.326;2023-02-17T10:39:58;12.30;99.90
44990;DHT22;30723;51.206;3.326;2023-02-17T10:42:35;12.40;99.90
44990;DHT22;30723;51.206;3.326;2023-02-17T10:45:49;12.30;99.90
44990;DHT22;30723;51.206;3.326;2023-02-17T10:48:05;12.40;99.90
44990;DHT22;30723;51.206;3.326;2023-02-17T10:50:33;12.40;99.90
44990;DHT22;30723;51.206;3.326;2023-02-17T10:53:01;12.40;99.90
44990;DHT22;30723;51.206;3.326;2023-02-17T10:55:34;12.30;99.90
44990;DHT22;30723;51.206;3.326;2023-02-17T10:58:24;12.30;99.90
44990;DHT22;30723;51.206;3.326;2023-02-17T11:00:56;12.30;99.90
44990;DHT22;30723;51.206;3.326;2023-02-17T11:03:42;12.30;99.90
44990;DHT22;30723;51.206;3.326;2023-02-17T11:06:21;12.30;99.90
44990;DHT22;30723;51.206;3.326;2023-02-17T11:09:23;12.30;99.90
44990;DHT22;30723;51.206;3.326;2023-02-17T11:12:25;12.30;99.90
44990;DHT22;30723;51.206;3.326;2023-02-17T11:14:54;12.20;99.90
44990;DHT22;30723;51.206;3.326;2023-02-17T11:17:27;12.20;99.90
44990;DHT22;30723;51.206;3.326;2023-02-17T11:22:59;12.30;99.90
44990;DHT22;30723;51.206;3.326;2023-02-17T11:25:32;12.30;99.90
44990;DHT22;30723;51.206;3.326;2023-02-17T11:28:04;12.30;99.90
44990;DHT22;30723;51.206;3.326;2023-02-17T11:30:33;12.30;99.90
44990;DHT22;30723;51.206;3.326;2023-02-17T11:33:20;12.40;99.90
44990;DHT22;30723;51.206;3.326;2023-02-17T11:35:53;12.50;99.90
44990;DHT22;30723;51.206;3.326;2023-02-17T11:41:06;12.40;99.90
44990;DHT22;30723;51.206;3.326;2023-02-17T11:43:34;12.50;99.90
44990;DHT22;30723;51.206;3.326;2023-02-17T11:49:01;12.60;99.90
44990;DHT22;30723;51.206;3.326;2023-02-17T11:51:52;12.70;99.90
44990;DHT22;30723;51.206;3.326;2023-02-17T11:54:55;12.80;99.90
44990;DHT22;30723;51.206;3.326;2023-02-17T12:00:10;12.80;99.90
44990;DHT22;30723;51.206;3.326;2023-02-17T12:02:57;12.80;99.90
44990;DHT22;30723;51.206;3.326;2023-02-17T12:10:48;12.90;99.90
44990;DHT22;30723;51.206;3.326;2023-02-17T12:19:40;13.00;99.90
44990;DHT22;30723;51.206;3.326;2023-02-17T12:36:00;13.00;99.90
44990;DHT22;30723;51.206;3.326;2023-02-17T12:38:37;13.00;99.90
44990;DHT22;30723;51.206;3.326;2023-02-17T12:46:36;13.00;99.90
44990;DHT22;30723;51.206;3.326;2023-02-17T12:51:59;12.90;99.90
44990;DHT22;30723;51.206;3.326;2023-02-17T12:54:42;13.00;99.90
44990;DHT22;30723;51.206;3.326;2023-02-17T12:57:12;12.90;99.90
44990;DHT22;30723;51.206;3.326;2023-02-17T12:59:46;13.00;99.90
44990;DHT22;30723;51.206;3.326;2023-02-17T13:04:38;13.20;99.90
44990;DHT22;30723;51.206;3.326;2023-02-17T13:09:54;13.30;99.90
44990;DHT22;30723;51.206;3.326;2023-02-17T13:14:55;13.30;99.90
44990;DHT22;30723;51.206;3.326;2023-02-17T13:17:38;13.30;99.90
44990;DHT22;30723;51.206;3.326;2023-02-17T13:22:42;13.30;99.90
44990;DHT22;30723;51.206;3.326;2023-02-17T13:27:52;13.30;99.90
44990;DHT22;30723;51.206;3.326;2023-02-17T13:35:36;13.20;99.90
44990;DHT22;30723;51.206;3.326;2023-02-17T13:38:03;13.30;99.90
44990;DHT22;30723;51.206;3.326;2023-02-17T13:42:56;13.30;99.90
44990;DHT22;30723;51.206;3.326;2023-02-17T13:45:48;13.30;99.90
44990;DHT22;30723;51.206;3.326;2023-02-17T13:50:54;13.20;99.90
44990;DHT22;30723;51.206;3.326;2023-02-17T13:53:41;13.10;99.90
44990;DHT22;30723;51.206;3.326;2023-02-17T13:58:48;13.30;99.90
44990;DHT22;30723;51.206;3.326;2023-02-17T14:01:19;13.20;99.90
44990;DHT22;30723;51.206;3.326;2023-02-17T14:03:50;13.20;99.90
44990;DHT22;30723;51.206;3.326;2023-02-17T14:08:58;13.00;99.90
44990;DHT22;30723;51.206;3.326;2023-02-17T14:11:27;12.90;99.90
44990;DHT22;30723;51.206;3.326;2023-02-17T14:13:55;12.80;99.90
44990;DHT22;30723;51.206;3.326;2023-02-17T14:16:37;12.80;99.90
44990;DHT22;30723;51.206;3.326;2023-02-17T14:19:09;12.70;99.90
44990;DHT22;30723;51.206;3.326;2023-02-17T14:21:39;12.60;99.90
44990;DHT22;30723;51.206;3.326;2023-02-17T14:24:06;12.70;99.90
44990;DHT22;30723;51.206;3.326;2023-02-17T14:26:42;12.80;99.90
44990;DHT22;30723;51.206;3.326;2023-02-17T14:29:10;12.80;99.90
44990;DHT22;30723;51.206;3.326;2023-02-17T14:31:40;12.80;99.90
44990;DHT22;30723;51.206;3.326;2023-02-17T14:34:12;12.80;99.90
44990;DHT22;30723;51.206;3.326;2023-02-17T14:36:40;12.70;99.90
44990;DHT22;30723;51.206;3.326;2023-02-17T14:39:12;12.80;99.90
44990;DHT22;30723;51.206;3.326;2023-02-17T14:41:39;12.80;99.90
44990;DHT22;30723;51.206;3.326;2023-02-17T14:44:06;12.80;99.90
44990;DHT22;30723;51.206;3.326;2023-02-17T14:46:33;12.90;99.90
44990;DHT22;30723;51.206;3.326;2023-02-17T14:49:01;12.90;99.90
44990;DHT22;30723;51.206;3.326;2023-02-17T14:51:35;12.90;99.90
44990;DHT22;30723;51.206;3.326;2023-02-17T14:54:15;12.90;99.90
44990;DHT22;30723;51.206;3.326;2023-02-17T14:56:55;12.80;99.90
44990;DHT22;30723;51.206;3.326;2023-02-17T14:59:23;12.80;99.90
44990;DHT22;30723;51.206;3.326;2023-02-17T15:01:50;12.80;99.90
44990;DHT22;30723;51.206;3.326;2023-02-17T15:04:16;12.80;99.90
44990;DHT22;30723;51.206;3.326;2023-02-17T15:06:46;12.80;99.90
44990;DHT22;30723;51.206;3.326;2023-02-17T15:09:32;12.80;99.90
44990;DHT22;30723;51.206;3.326;2023-02-17T15:11:58;12.90;99.90
44990;DHT22;30723;51.206;3.326;2023-02-17T15:14:24;12.90;99.90
44990;DHT22;30723;51.206;3.326;2023-02-17T15:16:50;12.80;99.90
44990;DHT22;30723;51.206;3.326;2023-02-17T15:19:15;12.80;99.90
44990;DHT22;30723;51.206;3.326;2023-02-17T15:21:49;12.80;99.90
44990;DHT22;30723;51.206;3.326;2023-02-17T15:24:30;12.80;99.90
44990;DHT22;30723;51.206;3.326;2023-02-17T15:26:57;12.90;99.90
44990;DHT22;30723;51.206;3.326;2023-02-17T15:29:24;12.90;99.90
44990;DHT22;30723;51.206;3.326;2023-02-17T15:31:53;12.80;99.90
44990;DHT22;30723;51.206;3.326;2023-02-17T15:34:25;12.80;99.90
44990;DHT22;30723;51.206;3.326;2023-02-17T15:37:09;12.80;99.90
44990;DHT22;30723;51.206;3.326;2023-02-17T15:39:35;12.80;99.90
44990;DHT22;30723;51.206;3.326;2023-02-17T15:42:09;12.80;99.90
44990;DHT22;30723;51.206;3.326;2023-02-17T15:44:56;12.80;99.90
44990;DHT22;30723;51.206;3.326;2023-02-17T15:47:22;13.00;99.90
44990;DHT22;30723;51.206;3.326;2023-02-17T15:49:49;13.00;99.90
44990;DHT22;30723;51.206;3.326;2023-02-17T15:52:15;13.00;99.90
44990;DHT22;30723;51.206;3.326;2023-02-17T15:54:42;13.10;99.90
44990;DHT22;30723;51.206;3.326;2023-02-17T15:57:20;13.10;99.90
44990;DHT22;30723;51.206;3.326;2023-02-17T15:59:49;13.10;99.90
44990;DHT22;30723;51.206;3.326;2023-02-17T16:02:21;13.00;99.90
44990;DHT22;30723;51.206;3.326;2023-02-17T16:04:54;12.90;99.90
44990;DHT22;30723;51.206;3.326;2023-02-17T16:07:21;12.90;99.90
44990;DHT22;30723;51.206;3.326;2023-02-17T16:09:49;12.90;99.90
44990;DHT22;30723;51.206;3.326;2023-02-17T16:12:18;12.80;99.90
44990;DHT22;30723;51.206;3.326;2023-02-17T16:14:51;12.80;99.90
44990;DHT22;30723;51.206;3.326;2023-02-17T16:17:17;12.70;99.90
44990;DHT22;30723;51.206;3.326;2023-02-17T16:19:46;12.70;99.90
44990;DHT22;30723;51.206;3.326;2023-02-17T16:22:12;12.60;99.90
44990;DHT22;30723;51.206;3.326;2023-02-17T16:24:40;12.60;99.90
44990;DHT22;30723;51.206;3.326;2023-02-17T16:27:12;12.50;99.90
44990;DHT22;30723;51.206;3.326;2023-02-17T16:29:39;12.50;99.90
44990;DHT22;30723;51.206;3.326;2023-02-17T16:32:09;12.50;99.90
44990;DHT22;30723;51.206;3.326;2023-02-17T16:34:36;12.50;99.90
44990;DHT22;30723;51.206;3.326;2023-02-17T16:37:09;12.50;99.90
44990;DHT22;30723;51.206;3.326;2023-02-17T16:39:38;12.50;99.90
44990;DHT22;30723;51.206;3.326;2023-02-17T16:42:05;12.40;99.90
44990;DHT22;30723;51.206;3.326;2023-02-17T16:44:32;12.40;99.90
44990;DHT22;30723;51.206;3.326;2023-02-17T16:46:59;12.30;99.90
44990;DHT22;30723;51.206;3.326;2023-02-17T16:49:32;12.20;99.90
44990;DHT22;30723;51.206;3.326;2023-02-17T16:52:04;12.10;99.90
44990;DHT22;30723;51.206;3.326;2023-02-17T16:54:31;12.00;99.90
44990;DHT22;30723;51.206;3.326;2023-02-17T16:56:57;11.90;99.90
44990;DHT22;30723;51.206;3.326;2023-02-17T16:59:25;11.90;99.90
44990;DHT22;30723;51.206;3.326;2023-02-17T17:01:52;11.80;99.90
44990;DHT22;30723;51.206;3.326;2023-02-17T17:04:20;11.80;99.90
44990;DHT22;30723;51.206;3.326;2023-02-17T17:06:48;11.80;99.90
44990;DHT22;30723;51.206;3.326;2023-02-17T17:09:18;11.90;99.90
44990;DHT22;30723;51.206;3.326;2023-02-17T17:11:45;11.90;99.90
44990;DHT22;30723;51.206;3.326;2023-02-17T17:14:12;11.80;99.90
44990;DHT22;30723;51.206;3.326;2023-02-17T17:16:41;11.70;99.90
44990;DHT22;30723;51.206;3.326;2023-02-17T17:19:11;11.80;99.90
44990;DHT22;30723;51.206;3.326;2023-02-17T17:21:38;11.70;99.90
44990;DHT22;30723;51.206;3.326;2023-02-17T17:24:05;11.70;99.90
44990;DHT22;30723;51.206;3.326;2023-02-17T17:26:44;11.70;99.90
44990;DHT22;30723;51.206;3.326;2023-02-17T17:29:13;11.60;99.90
44990;DHT22;30723;51.206;3.326;2023-02-17T17:31:40;11.60;99.90
44990;DHT22;30723;51.206;3.326;2023-02-17T17:34:06;11.60;99.90
44990;DHT22;30723;51.206;3.326;2023-02-17T17:36:38;11.50;99.90
44990;DHT22;30723;51.206;3.326;2023-02-17T17:39:07;11.60;99.90
44990;DHT22;30723;51.206;3.326;2023-02-17T17:41:34;11.60;99.90
44990;DHT22;30723;51.206;3.326;2023-02-17T17:44:00;11.60;99.90
44990;DHT22;30723;51.206;3.326;2023-02-17T17:46:46;11.60;99.90
44990;DHT22;30723;51.206;3.326;2023-02-17T17:49:14;11.60;99.90
44990;DHT22;30723;51.206;3.326;2023-02-17T17:51:43;11.70;99.90